createdAt,value
2019-05-18T00:01:53.246Z,13.70
2019-05-18T00:04:19.417Z,13.60
2019-05-18T00:06:45.591Z,13.60
2019-05-18T00:09:11.811Z,13.50
2019-05-18T00:11:38.081Z,13.50
2019-05-18T00:14:04.348Z,13.40
2019-05-18T00:16:30.549Z,13.30
2019-05-18T00:18:56.717Z,13.30
2019-05-18T00:21:22.975Z,13.20
2019-05-18T00:23:49.153Z,13.10
2019-05-18T00:26:15.325Z,13.00
2019-05-18T00:28:41.520Z,13.00
2019-05-18T00:31:07.893Z,12.90
2019-05-18T00:33:34.145Z,12.80
2019-05-18T00:36:01.296Z,12.70
2019-05-18T00:38:27.478Z,12.60
2019-05-18T00:40:53.662Z,12.50
2019-05-18T00:43:19.845Z,12.50
2019-05-18T00:45:46.001Z,12.40
2019-05-18T00:48:12.221Z,12.30
2019-05-18T00:50:38.397Z,12.20
2019-05-18T00:53:04.649Z,12.20
2019-05-18T00:55:30.791Z,12.10
2019-05-18T00:57:57.061Z,12.10
2019-05-18T01:00:23.423Z,12.10
2019-05-18T01:02:49.596Z,12.00
2019-05-18T01:05:15.736Z,12.00
2019-05-18T01:07:42.018Z,11.90
2019-05-18T01:10:08.588Z,11.90
2019-05-18T01:12:34.925Z,11.90
2019-05-18T01:15:01.262Z,11.80
2019-05-18T01:17:27.433Z,11.80
2019-05-18T01:19:53.690Z,11.70
2019-05-18T01:22:19.880Z,11.70
2019-05-18T01:24:46.032Z,11.60
2019-05-18T01:27:12.200Z,11.60
2019-05-18T01:29:39.361Z,11.50
2019-05-18T01:32:05.559Z,11.60
2019-05-18T01:34:31.722Z,11.50
2019-05-18T01:36:57.903Z,11.40
2019-05-18T01:39:24.101Z,11.40
2019-05-18T01:41:50.273Z,11.30
2019-05-18T01:44:16.456Z,11.30
2019-05-18T01:46:42.708Z,11.20
2019-05-18T01:49:08.859Z,11.10
2019-05-18T01:51:35.071Z,11.10
2019-05-18T01:54:01.224Z,11.00
2019-05-18T01:56:27.546Z,11.00
2019-05-18T01:58:53.727Z,11.00
2019-05-18T02:01:19.930Z,10.90
2019-05-18T02:03:46.111Z,10.80
2019-05-18T02:06:12.296Z,10.80
2019-05-18T02:08:38.505Z,10.80
2019-05-18T02:11:04.716Z,10.70
2019-05-18T02:13:30.974Z,10.70
2019-05-18T02:15:57.449Z,10.60
2019-05-18T02:18:29.156Z,10.60
2019-05-18T02:20:51.689Z,10.60
2019-05-18T02:23:17.854Z,10.60
2019-05-18T02:25:44.141Z,10.50
2019-05-18T02:28:10.297Z,10.50
2019-05-18T02:30:36.546Z,10.50
2019-05-18T02:33:02.771Z,10.50
2019-05-18T02:35:29.039Z,10.50
2019-05-18T02:37:57.114Z,10.50
2019-05-18T02:40:23.280Z,10.50
2019-05-18T02:42:49.519Z,10.50
2019-05-18T02:45:15.686Z,10.50
2019-05-18T02:47:41.902Z,10.50
2019-05-18T02:50:08.800Z,10.60
2019-05-18T02:52:34.988Z,10.60
2019-05-18T02:55:01.501Z,10.60
2019-05-18T02:57:28.786Z,10.60
2019-05-18T02:59:54.985Z,10.60
2019-05-18T03:02:21.171Z,10.60
2019-05-18T03:04:47.326Z,10.60
2019-05-18T03:07:13.599Z,10.60
2019-05-18T03:09:39.860Z,10.60
2019-05-18T03:12:06.054Z,10.60
2019-05-18T03:14:32.357Z,10.60
2019-05-18T03:16:58.791Z,10.60
2019-05-18T03:19:25.075Z,10.60
2019-05-18T03:21:51.303Z,10.60
2019-05-18T03:24:17.600Z,10.60
2019-05-18T03:26:43.886Z,10.60
2019-05-18T03:29:10.092Z,10.60
2019-05-18T03:31:36.335Z,10.60
2019-05-18T03:34:02.584Z,10.60
2019-05-18T03:36:29.255Z,10.60
2019-05-18T03:38:55.535Z,10.60
2019-05-18T03:41:21.758Z,10.60
2019-05-18T03:43:48.018Z,10.60
2019-05-18T03:46:14.256Z,10.60
2019-05-18T03:48:40.514Z,10.50
2019-05-18T03:51:06.904Z,10.50
2019-05-18T03:53:33.134Z,10.50
2019-05-18T03:55:59.519Z,10.50
2019-05-18T03:58:25.863Z,10.50
2019-05-18T04:00:52.220Z,10.50
2019-05-18T04:03:18.467Z,10.50
2019-05-18T04:05:44.685Z,10.50
2019-05-18T04:08:10.891Z,10.50
2019-05-18T04:10:37.033Z,10.50
2019-05-18T04:13:03.328Z,10.50
2019-05-18T04:15:29.652Z,10.60
2019-05-18T04:17:56.053Z,10.60
2019-05-18T04:20:22.275Z,10.60
2019-05-18T04:22:48.620Z,10.60
2019-05-18T04:25:14.805Z,10.70
2019-05-18T04:27:41.022Z,10.70
2019-05-18T04:30:07.925Z,10.70
2019-05-18T04:32:34.098Z,10.70
2019-05-18T04:35:00.345Z,10.70
2019-05-18T04:37:26.537Z,10.70
2019-05-18T04:39:52.759Z,10.70
2019-05-18T04:42:19.244Z,10.70
2019-05-18T04:44:45.672Z,10.80
2019-05-18T04:47:12.093Z,10.80
2019-05-18T04:49:38.314Z,10.80
2019-05-18T04:52:04.469Z,10.80
2019-05-18T04:54:30.685Z,10.80
2019-05-18T04:56:56.883Z,10.80
2019-05-18T04:59:23.269Z,10.80
2019-05-18T05:01:49.641Z,10.90
2019-05-18T05:04:15.978Z,10.90
2019-05-18T05:06:42.239Z,11.00
2019-05-18T05:09:08.429Z,11.00
2019-05-18T05:11:34.956Z,11.00
2019-05-18T05:14:02.456Z,11.10
2019-05-18T05:16:28.773Z,11.10
2019-05-18T05:18:54.984Z,11.20
2019-05-18T05:21:21.676Z,11.30
2019-05-18T05:23:48.586Z,11.30
2019-05-18T05:26:14.876Z,11.40
2019-05-18T05:28:41.102Z,11.40
2019-05-18T05:31:07.564Z,11.40
2019-05-18T05:33:34.123Z,11.50
2019-05-18T05:36:07.078Z,11.50
2019-05-18T05:38:33.280Z,11.70
2019-05-18T05:40:59.540Z,11.70
2019-05-18T05:43:25.992Z,11.70
2019-05-18T05:45:52.277Z,11.80
2019-05-18T05:48:18.577Z,11.90
2019-05-18T05:50:45.335Z,12.00
2019-05-18T05:53:11.804Z,12.00
2019-05-18T05:55:38.354Z,12.10
2019-05-18T05:58:05.027Z,12.20
2019-05-18T06:00:31.514Z,12.20
2019-05-18T06:02:59.115Z,12.30
2019-05-18T06:05:25.638Z,12.40
2019-05-18T06:07:51.847Z,12.50
2019-05-18T06:10:18.534Z,12.50
2019-05-18T06:12:45.231Z,12.60
2019-05-18T06:15:12.156Z,12.70
2019-05-18T06:17:38.811Z,12.70
2019-05-18T06:20:06.028Z,12.80
2019-05-18T06:22:32.194Z,12.90
2019-05-18T06:24:58.590Z,13.00
2019-05-18T06:27:25.070Z,13.00
2019-05-18T06:29:51.491Z,13.10
2019-05-18T06:32:17.689Z,13.20
2019-05-18T06:34:43.971Z,13.30
2019-05-18T06:37:10.301Z,13.30
2019-05-18T06:39:36.645Z,13.40
2019-05-18T06:42:03.210Z,13.40
2019-05-18T06:44:29.841Z,13.50
2019-05-18T06:46:56.222Z,13.60
2019-05-18T06:49:22.823Z,13.60
2019-05-18T06:51:49.212Z,13.70
2019-05-18T06:54:15.386Z,13.80
2019-05-18T06:56:42.526Z,13.90
2019-05-18T06:59:10.204Z,13.90
2019-05-18T07:01:36.554Z,14.00
2019-05-18T07:04:02.931Z,14.10
2019-05-18T07:06:29.498Z,14.10
2019-05-18T07:08:55.904Z,14.20
2019-05-18T07:11:22.267Z,14.30
2019-05-18T07:13:49.089Z,14.30
2019-05-18T07:16:15.662Z,14.30
2019-05-18T07:18:42.121Z,14.40
2019-05-18T07:21:21.374Z,14.50
2019-05-18T07:23:36.584Z,14.50
2019-05-18T07:26:03.043Z,14.60
2019-05-18T07:28:29.321Z,14.70
2019-05-18T07:30:55.523Z,14.70
2019-05-18T07:33:21.715Z,14.70
2019-05-18T07:35:47.950Z,14.80
2019-05-18T07:38:14.166Z,14.80
2019-05-18T07:40:40.409Z,14.90
2019-05-18T07:43:06.809Z,15.00
2019-05-18T07:45:33.227Z,15.00
2019-05-18T07:47:59.434Z,15.10
2019-05-18T07:50:26.116Z,15.20
2019-05-18T07:52:52.874Z,15.20
2019-05-18T07:55:19.117Z,15.30
2019-05-18T07:57:45.313Z,15.40
2019-05-18T08:00:12.144Z,15.40
2019-05-18T08:02:38.573Z,15.50
2019-05-18T08:05:06.884Z,15.60
2019-05-18T08:07:33.326Z,15.60
2019-05-18T08:09:59.578Z,15.70
2019-05-18T08:12:25.878Z,15.80
2019-05-18T08:14:52.250Z,15.90
2019-05-18T08:17:18.597Z,16.00
2019-05-18T08:19:44.870Z,16.00
2019-05-18T08:22:11.230Z,16.10
2019-05-18T08:24:37.901Z,16.10
2019-05-18T08:27:05.073Z,16.20
2019-05-18T08:29:31.589Z,16.30
2019-05-18T08:31:57.751Z,16.40
2019-05-18T08:34:23.882Z,16.40
2019-05-18T08:36:50.080Z,16.50
2019-05-18T08:39:16.259Z,16.60
2019-05-18T08:41:42.569Z,16.70
2019-05-18T08:44:08.806Z,16.70
2019-05-18T08:46:35.123Z,16.80
2019-05-18T08:49:01.406Z,16.90
2019-05-18T08:51:27.588Z,16.90
2019-05-18T08:53:53.782Z,17.00
2019-05-18T08:56:19.953Z,17.10
2019-05-18T08:58:46.135Z,17.20
2019-05-18T09:01:12.563Z,17.20
2019-05-18T09:03:38.739Z,17.30
2019-05-18T09:06:05.105Z,17.30
2019-05-18T09:08:31.354Z,17.40
2019-05-18T09:10:57.740Z,17.50
2019-05-18T09:13:24.121Z,17.50
2019-05-18T09:15:50.470Z,17.60
2019-05-18T09:18:16.732Z,17.70
2019-05-18T09:20:43.011Z,17.70
2019-05-18T09:23:09.257Z,17.80
2019-05-18T09:25:35.457Z,17.90
2019-05-18T09:28:01.767Z,18.00
2019-05-18T09:30:27.949Z,18.10
2019-05-18T09:32:54.254Z,18.20
2019-05-18T09:35:20.429Z,18.20
2019-05-18T09:37:46.654Z,18.30
2019-05-18T09:40:13.246Z,18.40
2019-05-18T09:42:39.466Z,18.50
2019-05-18T09:45:07.437Z,18.50
2019-05-18T09:47:33.875Z,18.60
2019-05-18T09:50:00.115Z,18.70
2019-05-18T09:52:43.663Z,18.90
2019-05-18T09:54:54.436Z,19.00
2019-05-18T09:57:20.763Z,19.10
2019-05-18T09:59:47.223Z,19.20
2019-05-18T10:02:13.492Z,19.30
2019-05-18T10:04:39.700Z,19.50
2019-05-18T10:07:06.246Z,19.70
2019-05-18T10:09:38.757Z,19.90
2019-05-18T10:12:00.905Z,20.00
2019-05-18T10:14:27.129Z,20.10
2019-05-18T10:16:53.360Z,20.10
2019-05-18T10:19:19.659Z,20.10
2019-05-18T10:21:45.851Z,20.20
2019-05-18T10:24:12.086Z,20.30
2019-05-18T10:26:38.271Z,20.40
2019-05-18T10:29:05.585Z,20.40
2019-05-18T10:31:31.795Z,20.50
2019-05-18T10:33:58.141Z,20.50
2019-05-18T10:36:24.369Z,20.50
2019-05-18T10:38:50.626Z,20.60
2019-05-18T10:41:16.993Z,20.60
2019-05-18T10:43:47.087Z,20.70
2019-05-18T10:46:11.472Z,20.80
2019-05-18T10:48:37.758Z,20.80
2019-05-18T10:51:05.698Z,20.90
2019-05-18T10:53:32.452Z,21.00
2019-05-18T10:55:59.168Z,21.10
2019-05-18T10:58:25.409Z,21.10
2019-05-18T11:00:51.575Z,21.30
2019-05-18T11:03:17.975Z,21.40
2019-05-18T11:05:44.252Z,21.50
2019-05-18T11:08:10.728Z,21.50
2019-05-18T11:10:37.070Z,21.60
2019-05-18T11:13:03.487Z,21.60
2019-05-18T11:15:29.650Z,21.50
2019-05-18T11:17:55.945Z,21.50
2019-05-18T11:20:22.157Z,21.60
2019-05-18T11:22:48.392Z,21.80
2019-05-18T11:25:14.731Z,22.00
2019-05-18T11:27:40.999Z,22.10
2019-05-18T11:30:09.129Z,22.40
2019-05-18T11:32:36.008Z,22.80
2019-05-18T11:35:04.905Z,23.30
2019-05-18T11:37:31.106Z,23.50
2019-05-18T11:39:57.314Z,23.50
2019-05-18T11:42:23.509Z,23.50
2019-05-18T11:44:49.697Z,23.60
2019-05-18T11:47:16.020Z,24.20
2019-05-18T11:49:42.378Z,24.20
2019-05-18T11:52:08.745Z,23.90
2019-05-18T11:54:34.962Z,23.60
2019-05-18T11:57:01.182Z,23.30
2019-05-18T11:59:27.445Z,23.30
2019-05-18T12:01:53.600Z,23.30
2019-05-18T12:04:20.134Z,24.90
2019-05-18T12:06:46.550Z,27.40
2019-05-18T12:09:12.927Z,29.40
2019-05-18T12:11:39.208Z,30.30
2019-05-18T12:14:05.409Z,30.80
2019-05-18T12:16:31.665Z,31.80
2019-05-18T12:18:57.874Z,32.90
2019-05-18T12:21:24.150Z,33.20
2019-05-18T12:23:52.371Z,33.20
2019-05-18T12:26:18.906Z,33.00
2019-05-18T12:28:45.381Z,32.90
2019-05-18T12:31:11.570Z,32.50
2019-05-18T12:33:38.078Z,32.10
2019-05-18T12:36:04.823Z,31.60
2019-05-18T12:38:31.160Z,31.20
2019-05-18T12:40:58.145Z,31.40
2019-05-18T12:43:24.873Z,31.60
2019-05-18T12:45:51.691Z,31.90
2019-05-18T12:48:18.499Z,32.70
2019-05-18T12:50:44.952Z,33.40
2019-05-18T12:53:11.267Z,33.20
2019-05-18T12:55:37.488Z,32.20
2019-05-18T12:58:03.683Z,31.20
2019-05-18T13:00:29.854Z,30.20
2019-05-18T13:02:56.034Z,29.30
2019-05-18T13:05:22.349Z,28.40
2019-05-18T13:07:48.794Z,27.80
2019-05-18T13:10:16.666Z,27.60
2019-05-18T13:12:43.127Z,28.20
2019-05-18T13:15:10.590Z,29.10
2019-05-18T13:17:36.936Z,29.50
2019-05-18T13:20:07.672Z,29.20
2019-05-18T13:22:33.839Z,28.60
2019-05-18T13:25:00.075Z,28.10
2019-05-18T13:27:38.811Z,27.60
2019-05-18T13:29:54.352Z,27.30
2019-05-18T13:32:20.722Z,27.00
2019-05-18T13:34:47.045Z,26.60
2019-05-18T13:37:13.246Z,26.10
2019-05-18T13:39:39.465Z,25.70
2019-05-18T13:42:05.670Z,25.40
2019-05-18T13:44:31.862Z,25.10
2019-05-18T13:46:58.040Z,24.90
2019-05-18T13:49:24.248Z,24.70
2019-05-18T13:51:50.420Z,24.50
2019-05-18T13:54:16.918Z,24.30
2019-05-18T13:56:43.335Z,24.20
2019-05-18T13:59:09.626Z,24.00
2019-05-18T14:01:36.116Z,23.80
2019-05-18T14:04:02.908Z,23.70
2019-05-18T14:06:29.648Z,23.60
2019-05-18T14:08:55.938Z,23.40
2019-05-18T14:11:22.189Z,23.30
2019-05-18T14:13:48.388Z,23.20
2019-05-18T14:16:14.627Z,23.10
2019-05-18T14:18:40.861Z,23.00
2019-05-18T14:21:07.029Z,22.90
2019-05-18T14:23:33.229Z,22.80
2019-05-18T14:26:00.624Z,22.70
2019-05-18T14:28:27.227Z,22.60
2019-05-18T14:30:53.579Z,22.60
2019-05-18T14:33:19.971Z,22.50
2019-05-18T14:35:46.280Z,22.40
2019-05-18T14:38:12.478Z,22.40
2019-05-18T14:40:38.823Z,22.40
2019-05-18T14:43:05.336Z,22.30
2019-05-18T14:45:31.671Z,22.30
2019-05-18T14:47:58.029Z,22.30
2019-05-18T14:50:24.348Z,22.30
2019-05-18T14:52:50.642Z,22.20
2019-05-18T14:55:17.214Z,22.20
2019-05-18T14:57:43.501Z,22.20
2019-05-18T15:00:10.338Z,22.20
2019-05-18T15:02:36.709Z,22.20
2019-05-18T15:05:06.959Z,22.20
2019-05-18T15:07:33.405Z,22.10
2019-05-18T15:09:59.947Z,22.10
2019-05-18T15:12:26.239Z,22.10
2019-05-18T15:14:52.448Z,22.10
2019-05-18T15:17:18.637Z,22.10
2019-05-18T15:19:45.350Z,22.10
2019-05-18T15:22:11.719Z,22.10
2019-05-18T15:24:38.170Z,22.10
2019-05-18T15:27:04.441Z,22.10
2019-05-18T15:29:31.924Z,22.10
2019-05-18T15:31:58.181Z,22.10
2019-05-18T15:34:24.483Z,22.10
2019-05-18T15:36:50.698Z,22.10
2019-05-18T15:39:17.012Z,22.20
2019-05-18T15:41:43.416Z,22.20
2019-05-18T15:44:09.744Z,22.20
2019-05-18T15:46:36.052Z,22.30
2019-05-18T15:49:02.266Z,22.30
2019-05-18T15:51:28.876Z,22.40
2019-05-18T15:53:55.517Z,22.50
2019-05-18T15:56:22.225Z,22.60
2019-05-18T15:58:48.645Z,22.60
2019-05-18T16:01:14.829Z,22.70
2019-05-18T16:03:41.124Z,22.60
2019-05-18T16:06:07.324Z,22.70
2019-05-18T16:08:33.635Z,22.70
2019-05-18T16:10:59.942Z,22.70
2019-05-18T16:13:26.278Z,22.60
2019-05-18T16:15:52.458Z,22.60
2019-05-18T16:18:18.775Z,22.60
2019-05-18T16:20:44.975Z,22.60
2019-05-18T16:23:11.230Z,22.50
2019-05-18T16:25:37.515Z,22.50
2019-05-18T16:28:03.904Z,22.50
2019-05-18T16:30:30.389Z,22.50
2019-05-18T16:32:56.627Z,22.40
2019-05-18T16:35:23.781Z,22.50
2019-05-18T16:37:50.054Z,22.50
2019-05-18T16:40:17.148Z,22.50
2019-05-18T16:42:46.436Z,22.50
2019-05-18T16:45:12.052Z,22.50
2019-05-18T16:47:38.309Z,22.50
2019-05-18T16:50:05.734Z,22.40
2019-05-18T16:52:31.920Z,22.40
2019-05-18T16:54:58.222Z,22.40
2019-05-18T16:57:24.664Z,22.50
2019-05-18T16:59:50.960Z,22.50
2019-05-18T17:02:30.721Z,22.60
2019-05-18T17:04:45.502Z,22.70
2019-05-18T17:07:11.807Z,22.80
2019-05-18T17:09:38.005Z,22.80
2019-05-18T17:12:04.288Z,22.80
2019-05-18T17:14:30.587Z,22.80
2019-05-18T17:16:56.801Z,22.80
2019-05-18T17:19:23.016Z,22.80
2019-05-18T17:21:49.327Z,22.80
2019-05-18T17:24:15.540Z,22.80
2019-05-18T17:26:52.290Z,22.70
2019-05-18T17:29:09.935Z,22.70
2019-05-18T17:31:36.130Z,22.60
2019-05-18T17:34:02.426Z,22.60
2019-05-18T17:36:29.023Z,22.60
2019-05-18T17:38:55.379Z,22.60
2019-05-18T17:41:21.610Z,22.60
2019-05-18T17:43:47.822Z,22.50
2019-05-18T17:46:15.309Z,22.50
2019-05-18T17:48:41.641Z,22.40
2019-05-18T17:51:07.926Z,22.30
2019-05-18T17:53:34.089Z,22.30
2019-05-18T17:56:00.323Z,22.20
2019-05-18T17:58:26.496Z,22.10
2019-05-18T18:00:52.687Z,22.00
2019-05-18T18:03:19.035Z,22.00
2019-05-18T18:05:45.574Z,21.90
2019-05-18T18:08:11.847Z,21.80
2019-05-18T18:10:38.128Z,21.70
2019-05-18T18:13:04.306Z,21.60
2019-05-18T18:15:30.508Z,21.60
2019-05-18T18:17:56.796Z,21.50
2019-05-18T18:20:23.330Z,21.40
2019-05-18T18:22:49.657Z,21.30
2019-05-18T18:25:15.870Z,21.20
2019-05-18T18:27:42.352Z,21.10
2019-05-18T18:30:10.340Z,21.10
2019-05-18T18:32:36.929Z,21.00
2019-05-18T18:35:06.777Z,20.90
2019-05-18T18:37:32.991Z,20.80
2019-05-18T18:39:59.309Z,20.70
2019-05-18T18:42:25.534Z,20.60
2019-05-18T18:44:51.743Z,20.50
2019-05-18T18:47:17.940Z,20.50
2019-05-18T18:49:44.263Z,20.40
2019-05-18T18:52:10.491Z,20.30
2019-05-18T18:54:36.875Z,20.30
2019-05-18T18:57:03.118Z,20.20
2019-05-18T18:59:29.804Z,20.10
2019-05-18T19:01:56.001Z,20.10
2019-05-18T19:04:22.222Z,20.00
2019-05-18T19:06:48.501Z,19.90
2019-05-18T19:09:14.754Z,19.80
2019-05-18T19:11:41.075Z,19.80
2019-05-18T19:14:07.428Z,19.70
2019-05-18T19:16:33.664Z,19.70
2019-05-18T19:18:59.943Z,19.60
2019-05-18T19:21:26.154Z,19.50
2019-05-18T19:23:52.374Z,19.40
2019-05-18T19:26:18.676Z,19.30
2019-05-18T19:28:44.870Z,19.20
2019-05-18T19:31:11.185Z,19.10
2019-05-18T19:33:37.404Z,19.00
2019-05-18T19:36:03.711Z,19.00
2019-05-18T19:38:29.948Z,18.90
2019-05-18T19:40:56.138Z,18.80
2019-05-18T19:43:22.369Z,18.70
2019-05-18T19:45:48.586Z,18.60
2019-05-18T19:48:14.872Z,18.50
2019-05-18T19:50:41.223Z,18.40
2019-05-18T19:53:07.395Z,18.40
2019-05-18T19:55:33.690Z,18.30
2019-05-18T19:58:08.482Z,18.30
2019-05-18T20:00:27.968Z,18.20
2019-05-18T20:02:54.144Z,18.20
2019-05-18T20:05:20.377Z,18.20
2019-05-18T20:07:46.550Z,18.10
2019-05-18T20:10:13.031Z,18.10
2019-05-18T20:12:39.313Z,18.10
2019-05-18T20:15:09.328Z,18.00
2019-05-18T20:17:35.141Z,17.90
2019-05-18T20:20:02.700Z,17.90
2019-05-18T20:22:29.166Z,17.80
2019-05-18T20:24:55.390Z,17.80
2019-05-18T20:27:21.571Z,17.70
2019-05-18T20:29:47.829Z,17.60
2019-05-18T20:32:14.032Z,17.60
2019-05-18T20:34:40.301Z,17.50
2019-05-18T20:37:06.617Z,17.50
2019-05-18T20:39:32.861Z,17.40
2019-05-18T20:41:59.026Z,17.30
2019-05-18T20:44:25.236Z,17.20
2019-05-18T20:46:51.452Z,17.20
2019-05-18T20:49:17.646Z,17.10
2019-05-18T20:51:43.826Z,17.00
2019-05-18T20:54:09.990Z,16.90
2019-05-18T20:56:36.195Z,16.90
2019-05-18T20:59:02.562Z,16.80
2019-05-18T21:01:28.850Z,16.80
2019-05-18T21:03:55.450Z,16.70
2019-05-18T21:06:21.789Z,16.70
2019-05-18T21:08:48.119Z,16.60
2019-05-18T21:11:14.331Z,16.60
2019-05-18T21:13:40.543Z,16.50
2019-05-18T21:16:06.771Z,16.50
2019-05-18T21:18:33.048Z,16.40
2019-05-18T21:20:59.339Z,16.40
2019-05-18T21:23:25.502Z,16.30
2019-05-18T21:25:51.722Z,16.30
2019-05-18T21:28:17.906Z,16.30
2019-05-18T21:30:44.131Z,16.30
2019-05-18T21:33:10.323Z,16.20
2019-05-18T21:35:36.600Z,16.20
2019-05-18T21:38:02.925Z,16.20
2019-05-18T21:40:29.320Z,16.10
2019-05-18T21:42:55.490Z,16.10
2019-05-18T21:45:21.715Z,16.10
2019-05-18T21:47:47.908Z,16.00
2019-05-18T21:50:14.445Z,16.00
2019-05-18T21:52:42.132Z,16.00
2019-05-18T21:55:08.771Z,15.90
2019-05-18T21:57:34.963Z,15.90
2019-05-18T22:00:01.113Z,15.90
2019-05-18T22:02:27.288Z,15.80
2019-05-18T22:04:53.479Z,15.80
2019-05-18T22:07:19.659Z,15.80
2019-05-18T22:09:45.816Z,15.90
2019-05-18T22:12:11.988Z,15.70
2019-05-18T22:14:38.155Z,15.70
2019-05-18T22:17:04.362Z,15.70
2019-05-18T22:19:30.553Z,15.60
2019-05-18T22:21:56.783Z,15.60
2019-05-18T22:24:22.984Z,15.60
2019-05-18T22:26:49.165Z,15.60
2019-05-18T22:29:15.385Z,15.60
2019-05-18T22:31:41.554Z,15.50
2019-05-18T22:34:07.722Z,15.50
2019-05-18T22:36:33.979Z,15.50
2019-05-18T22:39:00.273Z,15.40
2019-05-18T22:41:26.447Z,15.40
2019-05-18T22:43:52.739Z,15.40
2019-05-18T22:46:18.943Z,15.40
2019-05-18T22:48:45.142Z,15.30
2019-05-18T22:51:11.379Z,15.30
2019-05-18T22:53:37.527Z,15.30
2019-05-18T22:56:03.723Z,15.20
2019-05-18T22:58:29.991Z,15.20
2019-05-18T23:00:56.159Z,15.10
2019-05-18T23:03:22.342Z,15.10
2019-05-18T23:05:48.613Z,15.10
2019-05-18T23:08:14.807Z,15.00
2019-05-18T23:10:40.958Z,15.00
2019-05-18T23:13:07.159Z,14.90
2019-05-18T23:15:34.414Z,14.90
2019-05-18T23:18:00.592Z,14.80
2019-05-18T23:20:26.793Z,14.80
2019-05-18T23:22:52.953Z,14.70
2019-05-18T23:25:19.146Z,14.70
2019-05-18T23:27:45.354Z,14.60
2019-05-18T23:30:12.138Z,14.60
2019-05-18T23:32:38.336Z,14.50
2019-05-18T23:35:05.101Z,14.50
2019-05-18T23:37:31.561Z,14.50
2019-05-18T23:39:57.723Z,14.40
2019-05-18T23:42:23.933Z,14.40
2019-05-18T23:44:50.107Z,14.40
2019-05-18T23:47:16.290Z,14.30
2019-05-18T23:49:42.458Z,14.30
2019-05-18T23:52:08.637Z,14.30
2019-05-18T23:54:34.817Z,14.20
2019-05-18T23:57:00.998Z,14.20
2019-05-18T23:59:27.220Z,14.10
